createdAt,value
2022-10-02T00:00:00.031Z,6.37
2022-10-02T00:03:12.052Z,6.87
2022-10-02T00:06:22.661Z,5.13
2022-10-02T00:09:39.618Z,5.47
2022-10-02T00:12:43.321Z,5.50
2022-10-02T00:15:47.740Z,4.87
2022-10-02T00:18:51.752Z,4.90
2022-10-02T00:22:17.613Z,5.40
2022-10-02T00:25:29.187Z,5.07
2022-10-02T00:28:37.453Z,5.37
2022-10-02T00:31:50.430Z,5.07
2022-10-02T00:35:42.291Z,5.30
2022-10-02T00:38:59.827Z,4.77
2022-10-02T00:42:50.857Z,5.57
2022-10-02T00:46:16.523Z,4.53
2022-10-02T00:49:37.053Z,5.07
2022-10-02T00:53:00.290Z,5.00
2022-10-02T00:56:22.388Z,4.73
2022-10-02T00:59:55.760Z,5.10
2022-10-02T01:03:19.043Z,4.73
2022-10-02T01:06:26.777Z,5.23
2022-10-02T01:09:29.811Z,5.37
2022-10-02T01:12:32.857Z,5.00
2022-10-02T01:15:41.476Z,4.70
2022-10-02T01:18:48.001Z,5.80
2022-10-02T01:21:59.484Z,5.23
2022-10-02T01:25:07.543Z,5.87
2022-10-02T01:28:11.739Z,5.70
2022-10-02T01:31:16.123Z,5.63
2022-10-02T01:34:19.433Z,5.27
2022-10-02T01:37:25.593Z,5.03
2022-10-02T01:40:33.327Z,4.47
2022-10-02T01:43:39.343Z,5.80
2022-10-02T01:46:54.591Z,5.90
2022-10-02T01:50:10.791Z,4.87
2022-10-02T01:53:24.462Z,4.67
2022-10-02T01:56:40.847Z,5.57
2022-10-02T01:59:53.901Z,5.30
2022-10-02T02:03:06.611Z,5.63
2022-10-02T02:06:16.103Z,4.83
2022-10-02T02:09:30.470Z,5.23
2022-10-02T02:12:43.734Z,5.03
2022-10-02T02:15:55.483Z,5.07
2022-10-02T02:19:05.005Z,4.73
2022-10-02T02:22:16.754Z,5.27
2022-10-02T02:25:22.921Z,5.60
2022-10-02T02:28:28.858Z,4.73
2022-10-02T02:31:39.126Z,4.63
2022-10-02T02:34:47.673Z,5.33
2022-10-02T02:37:52.708Z,5.03
2022-10-02T02:41:00.981Z,4.50
2022-10-02T02:44:12.278Z,5.53
2022-10-02T02:47:22.467Z,4.67
2022-10-02T02:50:31.546Z,4.50
2022-10-02T02:53:39.579Z,5.37
2022-10-02T02:56:45.022Z,4.40
2022-10-02T02:59:52.541Z,5.90
2022-10-02T03:02:55.635Z,4.07
2022-10-02T03:06:06.002Z,4.87
2022-10-02T03:09:14.791Z,4.60
2022-10-02T03:12:29.710Z,5.00
2022-10-02T03:15:48.437Z,5.63
2022-10-02T03:19:11.844Z,5.43
2022-10-02T03:22:24.879Z,4.50
2022-10-02T03:25:34.542Z,4.40
2022-10-02T03:28:55.423Z,5.10
2022-10-02T03:32:01.411Z,5.73
2022-10-02T03:35:08.326Z,4.73
2022-10-02T03:38:14.663Z,5.30
2022-10-02T03:41:17.981Z,5.67
2022-10-02T03:44:21.065Z,5.33
2022-10-02T03:47:25.419Z,5.93
2022-10-02T03:50:30.753Z,4.80
2022-10-02T03:53:36.306Z,6.67
2022-10-02T03:56:47.652Z,6.57
2022-10-02T04:00:01.546Z,6.50
2022-10-02T04:03:12.164Z,5.33
2022-10-02T04:06:20.521Z,6.20
2022-10-02T04:09:30.594Z,5.37
2022-10-02T04:12:40.127Z,5.17
2022-10-02T04:15:57.833Z,4.60
2022-10-02T04:19:08.400Z,4.27
2022-10-02T04:22:23.635Z,4.93
2022-10-02T04:25:31.253Z,4.73
2022-10-02T04:28:41.231Z,4.90
2022-10-02T04:31:45.582Z,5.13
2022-10-02T04:34:49.970Z,5.40
2022-10-02T04:38:24.855Z,5.03
2022-10-02T04:41:58.505Z,4.90
2022-10-02T04:45:20.005Z,5.03
2022-10-02T04:49:11.830Z,4.83
2022-10-02T04:52:32.816Z,4.60
2022-10-02T04:55:53.056Z,5.07
2022-10-02T04:59:20.612Z,5.37
2022-10-02T05:02:38.126Z,5.30
2022-10-02T05:06:05.351Z,5.37
2022-10-02T05:09:17.364Z,4.93
2022-10-02T05:12:40.228Z,5.30
2022-10-02T05:16:03.657Z,4.10
2022-10-02T05:19:33.732Z,4.73
2022-10-02T05:23:16.132Z,4.70
2022-10-02T05:26:46.511Z,4.60
2022-10-02T05:30:07.212Z,5.17
2022-10-02T05:33:58.290Z,4.87
2022-10-02T05:37:23.719Z,4.10
2022-10-02T05:40:33.308Z,4.37
2022-10-02T05:43:47.586Z,5.27
2022-10-02T05:46:58.643Z,4.27
2022-10-02T05:50:10.952Z,4.40
2022-10-02T05:53:24.940Z,4.53
2022-10-02T05:56:37.160Z,4.63
2022-10-02T05:59:49.627Z,4.70
2022-10-02T06:03:04.387Z,4.60
2022-10-02T06:06:13.689Z,6.77
2022-10-02T06:09:21.398Z,4.63
2022-10-02T06:12:31.739Z,4.87
2022-10-02T06:15:44.258Z,5.23
2022-10-02T06:18:52.321Z,5.47
2022-10-02T06:22:02.704Z,5.20
2022-10-02T06:25:15.184Z,5.47
2022-10-02T06:28:25.300Z,4.63
2022-10-02T06:31:40.016Z,5.47
2022-10-02T06:34:47.661Z,4.87
2022-10-02T06:38:07.823Z,4.43
2022-10-02T06:41:20.551Z,5.23
2022-10-02T06:44:33.113Z,4.73
2022-10-02T06:47:58.430Z,5.23
2022-10-02T06:51:12.197Z,5.73
2022-10-02T06:54:33.052Z,5.33
2022-10-02T06:57:54.449Z,4.73
2022-10-02T07:01:06.861Z,4.80
2022-10-02T07:04:45.939Z,4.43
2022-10-02T07:08:00.375Z,5.40
2022-10-02T07:11:13.346Z,4.87
2022-10-02T07:14:41.914Z,6.83
2022-10-02T07:17:57.276Z,5.87
2022-10-02T07:21:11.039Z,7.20
2022-10-02T07:24:36.799Z,6.10
2022-10-02T07:27:49.573Z,6.50
2022-10-02T07:30:59.692Z,9.17
2022-10-02T07:34:17.320Z,7.43
2022-10-02T07:37:37.965Z,6.90
2022-10-02T07:40:55.155Z,8.43
2022-10-02T07:44:14.496Z,7.13
2022-10-02T07:47:35.595Z,6.73
2022-10-02T07:50:54.183Z,8.77
2022-10-02T07:54:13.191Z,9.90
2022-10-02T07:57:30.153Z,6.60
2022-10-02T08:00:39.734Z,8.30
2022-10-02T08:03:49.753Z,7.97
2022-10-02T08:07:01.651Z,6.40
2022-10-02T08:10:11.195Z,6.77
2022-10-02T08:13:20.462Z,7.33
2022-10-02T08:16:27.419Z,6.17
2022-10-02T08:19:39.265Z,6.37
2022-10-02T08:22:47.643Z,6.43
2022-10-02T08:26:00.518Z,6.90
2022-10-02T08:29:07.931Z,7.07
2022-10-02T08:32:12.638Z,7.93
2022-10-02T08:35:19.516Z,7.23
2022-10-02T08:38:42.652Z,6.73
2022-10-02T08:42:39.381Z,6.60
2022-10-02T08:46:40.579Z,6.07
2022-10-02T08:50:30.166Z,6.82
2022-10-02T08:54:13.963Z,7.40
2022-10-02T08:57:43.935Z,7.45
2022-10-02T09:00:59.771Z,6.90
2022-10-02T09:04:40.635Z,6.57
2022-10-02T09:08:26.247Z,7.07
2022-10-02T09:12:02.884Z,7.28
2022-10-02T09:15:17.650Z,7.35
2022-10-02T09:18:45.428Z,8.32
2022-10-02T09:21:55.974Z,11.75
2022-10-02T09:25:30.245Z,7.55
2022-10-02T09:29:42.184Z,9.60
2022-10-02T09:33:30.222Z,9.82
2022-10-02T09:37:16.866Z,8.53
2022-10-02T09:41:00.106Z,9.13
2022-10-02T09:44:46.192Z,8.00
2022-10-02T09:48:45.408Z,7.68
2022-10-02T09:52:42.814Z,11.88
2022-10-02T09:56:30.989Z,6.72
2022-10-02T09:59:52.268Z,6.00
2022-10-02T10:03:36.391Z,6.75
2022-10-02T10:07:08.475Z,5.75
2022-10-02T10:10:30.750Z,6.93
2022-10-02T10:14:06.731Z,5.28
2022-10-02T10:17:56.678Z,6.80
2022-10-02T10:21:31.796Z,5.90
2022-10-02T10:25:28.206Z,6.47
2022-10-02T10:29:15.057Z,5.93
2022-10-02T10:33:09.119Z,5.88
2022-10-02T10:37:13.464Z,7.03
2022-10-02T10:40:38.217Z,5.30
2022-10-02T10:44:13.164Z,4.60
2022-10-02T10:47:48.131Z,4.25
2022-10-02T10:51:01.400Z,4.18
2022-10-02T10:54:48.533Z,5.47
2022-10-02T10:58:14.887Z,4.97
2022-10-02T11:01:20.906Z,4.72
2022-10-02T11:04:52.704Z,5.13
2022-10-02T11:08:18.301Z,5.72
2022-10-02T11:11:28.707Z,5.93
2022-10-02T11:14:50.232Z,7.07
2022-10-02T11:18:24.802Z,5.50
2022-10-02T11:21:59.372Z,11.90
2022-10-02T11:25:28.413Z,6.28
2022-10-02T11:28:56.240Z,8.38
2022-10-02T11:32:28.279Z,5.75
2022-10-02T11:35:48.941Z,7.18
2022-10-02T11:39:15.812Z,6.20
2022-10-02T11:43:00.551Z,5.73
2022-10-02T11:46:33.488Z,5.57
2022-10-02T11:50:24.238Z,6.65
2022-10-02T11:54:09.323Z,5.13
2022-10-02T11:57:23.722Z,6.03
2022-10-02T12:01:05.830Z,4.70
2022-10-02T12:04:31.929Z,4.70
2022-10-02T12:07:44.206Z,4.35
2022-10-02T12:10:55.897Z,5.28
2022-10-02T12:14:12.896Z,4.78
2022-10-02T12:17:42.780Z,5.18
2022-10-02T12:21:23.029Z,5.07
2022-10-02T12:24:57.543Z,5.85
2022-10-02T12:28:12.315Z,6.32
2022-10-02T12:31:25.054Z,4.80
2022-10-02T12:34:42.435Z,4.57
2022-10-02T12:37:57.706Z,7.43
2022-10-02T12:41:08.941Z,4.68
2022-10-02T12:44:40.946Z,4.63
2022-10-02T12:48:00.620Z,4.07
2022-10-02T12:51:35.628Z,5.22
2022-10-02T12:55:11.391Z,4.25
2022-10-02T12:58:24.735Z,5.45
2022-10-02T13:02:18.937Z,4.20
2022-10-02T13:06:06.860Z,4.93
2022-10-02T13:09:29.972Z,4.75
2022-10-02T13:12:54.032Z,3.35
2022-10-02T13:16:05.532Z,3.55
2022-10-02T13:19:23.820Z,3.10
2022-10-02T13:22:37.849Z,3.70
2022-10-02T13:25:57.798Z,3.95
2022-10-02T13:29:26.498Z,5.10
2022-10-02T13:32:55.043Z,3.47
2022-10-02T13:36:18.056Z,3.35
2022-10-02T13:39:54.863Z,3.30
2022-10-02T13:43:34.941Z,3.40
2022-10-02T13:47:03.660Z,3.33
2022-10-02T13:50:38.082Z,3.88
2022-10-02T13:54:12.783Z,4.00
2022-10-02T13:57:37.057Z,4.50
2022-10-02T14:00:59.801Z,3.67
2022-10-02T14:04:29.588Z,3.50
2022-10-02T14:08:03.667Z,3.40
2022-10-02T14:11:17.279Z,3.25
2022-10-02T14:14:42.183Z,3.42
2022-10-02T14:18:10.619Z,4.13
2022-10-02T14:21:26.752Z,3.55
2022-10-02T14:25:04.116Z,3.05
2022-10-02T14:28:35.663Z,3.50
2022-10-02T14:32:06.460Z,3.00
2022-10-02T14:35:41.028Z,2.15
2022-10-02T14:39:05.080Z,2.85
2022-10-02T14:42:32.637Z,3.08
2022-10-02T14:46:02.958Z,2.67
2022-10-02T14:49:55.868Z,2.88
2022-10-02T14:53:27.420Z,2.60
2022-10-02T14:57:03.327Z,2.30
2022-10-02T15:00:19.065Z,2.58
2022-10-02T15:04:04.766Z,2.95
2022-10-02T15:07:12.217Z,3.10
2022-10-02T15:10:20.484Z,3.00
2022-10-02T15:13:38.616Z,3.38
2022-10-02T15:17:05.175Z,3.15
2022-10-02T15:20:22.569Z,3.22
2022-10-02T15:23:42.433Z,3.30
2022-10-02T15:26:51.479Z,3.92
2022-10-02T15:30:21.543Z,3.10
2022-10-02T15:33:33.123Z,3.78
2022-10-02T15:37:07.249Z,4.15
2022-10-02T15:40:30.594Z,4.65
2022-10-02T15:43:51.295Z,4.60
2022-10-02T15:47:07.020Z,4.07
2022-10-02T15:50:25.856Z,5.43
2022-10-02T15:53:46.303Z,7.80
2022-10-02T15:57:18.151Z,3.95
2022-10-02T16:00:22.935Z,3.45
2022-10-02T16:03:38.138Z,5.00
2022-10-02T16:07:21.034Z,4.13
2022-10-02T16:10:27.621Z,3.97
2022-10-02T16:13:47.452Z,3.70
2022-10-02T16:17:45.427Z,4.05
2022-10-02T16:21:15.583Z,4.63
2022-10-02T16:24:53.070Z,4.00
2022-10-02T16:28:10.647Z,7.30
2022-10-02T16:31:36.384Z,4.22
2022-10-02T16:34:51.858Z,5.93
2022-10-02T16:38:00.919Z,5.53
2022-10-02T16:41:20.804Z,3.88
2022-10-02T16:44:40.289Z,4.22
2022-10-02T16:47:49.899Z,4.53
2022-10-02T16:51:13.099Z,4.47
2022-10-02T16:54:24.395Z,5.75
2022-10-02T16:57:52.604Z,4.70
2022-10-02T17:00:59.401Z,4.20
2022-10-02T17:04:44.201Z,3.92
2022-10-02T17:07:58.904Z,4.70
2022-10-02T17:11:18.303Z,3.55
2022-10-02T17:14:28.659Z,3.80
2022-10-02T17:17:54.942Z,4.40
2022-10-02T17:21:03.875Z,3.50
2022-10-02T17:24:25.899Z,4.43
2022-10-02T17:27:45.605Z,5.63
2022-10-02T17:31:20.010Z,4.50
2022-10-02T17:34:25.775Z,4.87
2022-10-02T17:38:14.963Z,5.13
2022-10-02T17:41:42.349Z,5.60
2022-10-02T17:44:56.737Z,4.77
2022-10-02T17:48:38.716Z,5.70
2022-10-02T17:51:53.459Z,5.23
2022-10-02T17:55:43.835Z,5.03
2022-10-02T17:58:58.765Z,4.90
2022-10-02T18:02:14.762Z,5.80
2022-10-02T18:05:30.138Z,7.33
2022-10-02T18:09:04.500Z,6.23
2022-10-02T18:12:51.760Z,7.90
2022-10-02T18:16:22.170Z,5.53
2022-10-02T18:19:36.543Z,5.10
2022-10-02T18:22:58.478Z,6.13
2022-10-02T18:26:19.222Z,6.13
2022-10-02T18:29:41.591Z,5.03
2022-10-02T18:33:04.904Z,5.77
2022-10-02T18:36:28.994Z,5.90
2022-10-02T18:39:45.157Z,9.37
2022-10-02T18:43:04.579Z,7.67
2022-10-02T18:46:22.460Z,7.33
2022-10-02T18:49:54.706Z,6.20
2022-10-02T18:53:11.521Z,6.40
2022-10-02T18:56:22.378Z,6.03
2022-10-02T18:59:44.841Z,8.57
2022-10-02T19:03:12.410Z,9.07
2022-10-02T19:06:20.946Z,7.50
2022-10-02T19:09:28.848Z,7.50
2022-10-02T19:12:32.344Z,7.73
2022-10-02T19:15:36.107Z,7.93
2022-10-02T19:18:40.727Z,6.87
2022-10-02T19:21:43.690Z,5.90
2022-10-02T19:24:52.022Z,7.33
2022-10-02T19:27:56.063Z,6.93
2022-10-02T19:31:02.456Z,6.90
2022-10-02T19:34:13.348Z,5.80
2022-10-02T19:37:18.961Z,7.97
2022-10-02T19:40:26.101Z,6.80
2022-10-02T19:43:32.435Z,6.53
2022-10-02T19:46:40.145Z,5.50
2022-10-02T19:49:45.442Z,5.63
2022-10-02T19:52:54.385Z,6.57
2022-10-02T19:56:01.094Z,7.20
2022-10-02T19:59:11.652Z,5.70
2022-10-02T20:02:23.242Z,6.50
2022-10-02T20:05:28.968Z,6.17
2022-10-02T20:08:38.519Z,7.17
2022-10-02T20:11:46.370Z,6.50
2022-10-02T20:14:56.363Z,5.63
2022-10-02T20:17:58.380Z,6.57
2022-10-02T20:21:11.864Z,5.87
2022-10-02T20:24:21.802Z,6.13
2022-10-02T20:27:42.565Z,6.00
2022-10-02T20:30:51.599Z,7.17
2022-10-02T20:33:58.558Z,6.10
2022-10-02T20:37:07.116Z,5.17
2022-10-02T20:40:16.645Z,6.03
2022-10-02T20:43:24.533Z,7.60
2022-10-02T20:47:06.526Z,5.50
2022-10-02T20:50:31.363Z,5.33
2022-10-02T20:54:10.911Z,6.00
2022-10-02T20:58:08.787Z,6.67
2022-10-02T21:01:19.022Z,6.57
2022-10-02T21:04:46.669Z,5.63
2022-10-02T21:08:14.711Z,5.40
2022-10-02T21:11:35.644Z,5.90
2022-10-02T21:14:57.122Z,6.23
2022-10-02T21:18:33.553Z,7.37
2022-10-02T21:22:13.857Z,6.67
2022-10-02T21:25:46.999Z,5.33
2022-10-02T21:29:20.285Z,5.37
2022-10-02T21:32:42.838Z,4.57
2022-10-02T21:35:56.747Z,6.47
2022-10-02T21:39:43.749Z,5.33
2022-10-02T21:43:33.920Z,6.10
2022-10-02T21:47:12.775Z,5.57
2022-10-02T21:50:46.030Z,6.50
2022-10-02T21:54:28.998Z,6.67
2022-10-02T21:58:25.322Z,8.07
2022-10-02T22:02:13.913Z,6.33
2022-10-02T22:05:53.859Z,5.77
2022-10-02T22:09:22.395Z,7.10
2022-10-02T22:12:42.912Z,6.33
2022-10-02T22:16:04.098Z,7.03
2022-10-02T22:19:26.960Z,5.93
2022-10-02T22:22:55.709Z,6.50
2022-10-02T22:26:13.973Z,6.43
2022-10-02T22:29:25.104Z,6.57
2022-10-02T22:33:06.029Z,5.57
2022-10-02T22:36:44.142Z,6.10
2022-10-02T22:39:56.164Z,6.17
2022-10-02T22:43:05.175Z,7.43
2022-10-02T22:46:22.488Z,5.97
2022-10-02T22:49:33.537Z,7.03
2022-10-02T22:52:47.504Z,6.50
2022-10-02T22:55:53.945Z,7.20
2022-10-02T22:59:07.699Z,6.77
2022-10-02T23:02:15.644Z,5.93
2022-10-02T23:05:27.421Z,7.00
2022-10-02T23:08:34.963Z,6.20
2022-10-02T23:11:44.068Z,5.80
2022-10-02T23:15:04.697Z,5.70
2022-10-02T23:18:23.485Z,6.60
2022-10-02T23:21:34.582Z,5.33
2022-10-02T23:24:47.544Z,5.17
2022-10-02T23:27:59.130Z,6.20
2022-10-02T23:31:15.911Z,6.07
2022-10-02T23:34:35.552Z,6.63
2022-10-02T23:37:48.263Z,5.40
2022-10-02T23:41:23.170Z,5.97
2022-10-02T23:44:36.646Z,6.47
2022-10-02T23:47:58.285Z,5.93
2022-10-02T23:51:16.454Z,6.17
2022-10-02T23:54:43.270Z,6.83
2022-10-02T23:58:06.787Z,6.10
